sensor_id;sensor_type;location;lat;lon;timestamp;P1;durP1;ratioP1;P2;durP2;ratioP2
18170;SDS011;9210;48.358;10.902;2023-05-07T00:02:13;10.50;;;5.00;;
18170;SDS011;9210;48.358;10.902;2023-05-07T00:04:41;9.77;;;4.60;;
18170;SDS011;9210;48.358;10.902;2023-05-07T00:07:10;11.37;;;5.37;;
18170;SDS011;9210;48.358;10.902;2023-05-07T00:09:39;7.50;;;4.87;;
18170;SDS011;9210;48.358;10.902;2023-05-07T00:12:07;9.03;;;5.20;;
18170;SDS011;9210;48.358;10.902;2023-05-07T00:14:37;8.90;;;4.90;;
18170;SDS011;9210;48.358;10.902;2023-05-07T00:17:05;10.00;;;4.97;;
18170;SDS011;9210;48.358;10.902;2023-05-07T00:19:34;7.20;;;4.80;;
18170;SDS011;9210;48.358;10.902;2023-05-07T00:22:02;9.60;;;4.70;;
18170;SDS011;9210;48.358;10.902;2023-05-07T00:24:31;9.80;;;4.87;;
18170;SDS011;9210;48.358;10.902;2023-05-07T00:27:00;8.27;;;4.80;;
18170;SDS011;9210;48.358;10.902;2023-05-07T00:29:28;6.87;;;4.57;;
18170;SDS011;9210;48.358;10.902;2023-05-07T00:31:59;7.33;;;4.50;;
18170;SDS011;9210;48.358;10.902;2023-05-07T00:34:28;8.67;;;4.87;;
18170;SDS011;9210;48.358;10.902;2023-05-07T00:36:56;10.17;;;5.03;;
18170;SDS011;9210;48.358;10.902;2023-05-07T00:39:24;9.10;;;4.77;;
18170;SDS011;9210;48.358;10.902;2023-05-07T00:41:53;9.37;;;5.00;;
18170;SDS011;9210;48.358;10.902;2023-05-07T00:44:22;9.03;;;4.93;;
18170;SDS011;9210;48.358;10.902;2023-05-07T00:46:50;8.10;;;5.30;;
18170;SDS011;9210;48.358;10.902;2023-05-07T00:49:20;10.13;;;5.30;;
18170;SDS011;9210;48.358;10.902;2023-05-07T00:51:49;6.80;;;4.73;;
18170;SDS011;9210;48.358;10.902;2023-05-07T00:54:18;9.80;;;5.47;;
18170;SDS011;9210;48.358;10.902;2023-05-07T00:56:46;8.57;;;5.30;;
18170;SDS011;9210;48.358;10.902;2023-05-07T00:59:15;7.43;;;4.93;;
18170;SDS011;9210;48.358;10.902;2023-05-07T01:01:43;10.20;;;5.10;;
18170;SDS011;9210;48.358;10.902;2023-05-07T01:04:12;8.23;;;5.00;;
18170;SDS011;9210;48.358;10.902;2023-05-07T01:06:43;7.70;;;5.30;;
18170;SDS011;9210;48.358;10.902;2023-05-07T01:09:15;8.80;;;5.50;;
18170;SDS011;9210;48.358;10.902;2023-05-07T01:11:43;12.03;;;5.23;;
18170;SDS011;9210;48.358;10.902;2023-05-07T01:14:12;10.80;;;5.33;;
18170;SDS011;9210;48.358;10.902;2023-05-07T01:16:41;11.87;;;5.40;;
18170;SDS011;9210;48.358;10.902;2023-05-07T01:19:10;12.23;;;5.67;;
18170;SDS011;9210;48.358;10.902;2023-05-07T01:21:44;9.00;;;5.07;;
18170;SDS011;9210;48.358;10.902;2023-05-07T01:24:16;9.47;;;5.60;;
18170;SDS011;9210;48.358;10.902;2023-05-07T01:26:46;8.57;;;5.17;;
18170;SDS011;9210;48.358;10.902;2023-05-07T01:29:16;8.50;;;5.00;;
18170;SDS011;9210;48.358;10.902;2023-05-07T01:31:46;12.77;;;6.30;;
18170;SDS011;9210;48.358;10.902;2023-05-07T01:34:15;12.37;;;6.17;;
18170;SDS011;9210;48.358;10.902;2023-05-07T01:36:45;9.80;;;5.60;;
18170;SDS011;9210;48.358;10.902;2023-05-07T01:39:16;7.93;;;5.30;;
18170;SDS011;9210;48.358;10.902;2023-05-07T01:41:45;13.20;;;6.07;;
18170;SDS011;9210;48.358;10.902;2023-05-07T01:44:14;10.97;;;5.53;;
18170;SDS011;9210;48.358;10.902;2023-05-07T01:46:43;8.63;;;5.63;;
18170;SDS011;9210;48.358;10.902;2023-05-07T01:49:13;8.80;;;5.80;;
18170;SDS011;9210;48.358;10.902;2023-05-07T01:51:42;10.13;;;5.67;;
18170;SDS011;9210;48.358;10.902;2023-05-07T01:54:11;11.93;;;6.80;;
18170;SDS011;9210;48.358;10.902;2023-05-07T01:56:41;9.77;;;5.83;;
18170;SDS011;9210;48.358;10.902;2023-05-07T01:59:10;9.73;;;6.27;;
18170;SDS011;9210;48.358;10.902;2023-05-07T02:01:40;11.17;;;6.07;;
18170;SDS011;9210;48.358;10.902;2023-05-07T02:04:10;11.70;;;6.67;;
18170;SDS011;9210;48.358;10.902;2023-05-07T02:06:39;9.27;;;6.17;;
18170;SDS011;9210;48.358;10.902;2023-05-07T02:09:09;10.63;;;6.40;;
18170;SDS011;9210;48.358;10.902;2023-05-07T02:11:41;9.27;;;5.20;;
18170;SDS011;9210;48.358;10.902;2023-05-07T02:14:11;8.77;;;5.70;;
18170;SDS011;9210;48.358;10.902;2023-05-07T02:16:39;9.50;;;5.57;;
18170;SDS011;9210;48.358;10.902;2023-05-07T02:19:10;9.17;;;5.70;;
18170;SDS011;9210;48.358;10.902;2023-05-07T02:21:39;12.33;;;6.23;;
18170;SDS011;9210;48.358;10.902;2023-05-07T02:24:08;11.47;;;6.37;;
18170;SDS011;9210;48.358;10.902;2023-05-07T02:26:37;10.90;;;6.57;;
18170;SDS011;9210;48.358;10.902;2023-05-07T02:29:07;10.57;;;6.10;;
18170;SDS011;9210;48.358;10.902;2023-05-07T02:31:37;10.63;;;6.73;;
18170;SDS011;9210;48.358;10.902;2023-05-07T02:34:05;14.50;;;6.77;;
18170;SDS011;9210;48.358;10.902;2023-05-07T02:36:34;9.97;;;5.80;;
18170;SDS011;9210;48.358;10.902;2023-05-07T02:39:08;10.53;;;5.93;;
18170;SDS011;9210;48.358;10.902;2023-05-07T02:41:37;12.33;;;6.60;;
18170;SDS011;9210;48.358;10.902;2023-05-07T02:44:07;12.33;;;6.60;;
18170;SDS011;9210;48.358;10.902;2023-05-07T02:46:37;9.47;;;5.73;;
18170;SDS011;9210;48.358;10.902;2023-05-07T02:49:08;10.63;;;5.80;;
18170;SDS011;9210;48.358;10.902;2023-05-07T02:51:37;11.83;;;6.33;;
18170;SDS011;9210;48.358;10.902;2023-05-07T02:54:11;10.13;;;5.77;;
18170;SDS011;9210;48.358;10.902;2023-05-07T02:56:39;12.33;;;6.23;;
18170;SDS011;9210;48.358;10.902;2023-05-07T02:59:09;14.23;;;6.40;;
18170;SDS011;9210;48.358;10.902;2023-05-07T03:01:40;10.00;;;6.23;;
18170;SDS011;9210;48.358;10.902;2023-05-07T03:04:11;8.83;;;5.73;;
18170;SDS011;9210;48.358;10.902;2023-05-07T03:06:40;10.57;;;6.43;;
18170;SDS011;9210;48.358;10.902;2023-05-07T03:09:08;12.17;;;6.90;;
18170;SDS011;9210;48.358;10.902;2023-05-07T03:11:37;9.97;;;5.93;;
18170;SDS011;9210;48.358;10.902;2023-05-07T03:14:06;11.63;;;6.30;;
18170;SDS011;9210;48.358;10.902;2023-05-07T03:16:35;10.37;;;6.33;;
18170;SDS011;9210;48.358;10.902;2023-05-07T03:19:04;7.53;;;5.50;;
18170;SDS011;9210;48.358;10.902;2023-05-07T03:21:33;11.93;;;6.17;;
18170;SDS011;9210;48.358;10.902;2023-05-07T03:24:01;9.83;;;5.83;;
18170;SDS011;9210;48.358;10.902;2023-05-07T03:26:30;11.73;;;5.70;;
18170;SDS011;9210;48.358;10.902;2023-05-07T03:28:59;10.13;;;5.53;;
18170;SDS011;9210;48.358;10.902;2023-05-07T03:31:28;9.37;;;5.63;;
18170;SDS011;9210;48.358;10.902;2023-05-07T03:33:59;9.20;;;5.63;;
18170;SDS011;9210;48.358;10.902;2023-05-07T03:36:28;12.67;;;5.80;;
18170;SDS011;9210;48.358;10.902;2023-05-07T03:38:56;9.37;;;5.83;;
18170;SDS011;9210;48.358;10.902;2023-05-07T03:41:33;8.83;;;5.30;;
18170;SDS011;9210;48.358;10.902;2023-05-07T03:44:02;10.13;;;5.30;;
18170;SDS011;9210;48.358;10.902;2023-05-07T03:46:30;7.93;;;5.67;;
18170;SDS011;9210;48.358;10.902;2023-05-07T03:49:00;8.50;;;5.60;;
18170;SDS011;9210;48.358;10.902;2023-05-07T03:51:29;12.13;;;6.37;;
18170;SDS011;9210;48.358;10.902;2023-05-07T03:53:59;13.77;;;6.20;;
18170;SDS011;9210;48.358;10.902;2023-05-07T03:56:29;11.07;;;6.30;;
18170;SDS011;9210;48.358;10.902;2023-05-07T03:58:59;8.83;;;6.00;;
18170;SDS011;9210;48.358;10.902;2023-05-07T04:01:28;12.83;;;6.90;;
18170;SDS011;9210;48.358;10.902;2023-05-07T04:03:58;10.77;;;6.43;;
18170;SDS011;9210;48.358;10.902;2023-05-07T04:06:28;10.90;;;6.70;;
18170;SDS011;9210;48.358;10.902;2023-05-07T04:08:57;8.87;;;6.23;;
18170;SDS011;9210;48.358;10.902;2023-05-07T04:11:27;9.50;;;6.13;;
18170;SDS011;9210;48.358;10.902;2023-05-07T04:13:55;8.07;;;5.80;;
18170;SDS011;9210;48.358;10.902;2023-05-07T04:16:24;7.47;;;5.20;;
18170;SDS011;9210;48.358;10.902;2023-05-07T04:18:53;10.97;;;6.43;;
18170;SDS011;9210;48.358;10.902;2023-05-07T04:21:21;9.23;;;6.10;;
18170;SDS011;9210;48.358;10.902;2023-05-07T04:23:52;11.60;;;6.00;;
18170;SDS011;9210;48.358;10.902;2023-05-07T04:26:20;11.67;;;6.63;;
18170;SDS011;9210;48.358;10.902;2023-05-07T04:28:50;10.93;;;6.53;;
18170;SDS011;9210;48.358;10.902;2023-05-07T04:31:18;7.30;;;5.70;;
18170;SDS011;9210;48.358;10.902;2023-05-07T04:33:51;12.23;;;6.33;;
18170;SDS011;9210;48.358;10.902;2023-05-07T04:36:19;10.23;;;5.70;;
18170;SDS011;9210;48.358;10.902;2023-05-07T04:38:56;9.73;;;6.07;;
18170;SDS011;9210;48.358;10.902;2023-05-07T04:41:25;10.50;;;6.53;;
18170;SDS011;9210;48.358;10.902;2023-05-07T04:43:55;8.60;;;5.93;;
18170;SDS011;9210;48.358;10.902;2023-05-07T04:46:28;8.23;;;5.53;;
18170;SDS011;9210;48.358;10.902;2023-05-07T04:48:58;8.80;;;6.20;;
18170;SDS011;9210;48.358;10.902;2023-05-07T04:51:27;9.67;;;6.13;;
18170;SDS011;9210;48.358;10.902;2023-05-07T04:53:57;8.90;;;5.80;;
18170;SDS011;9210;48.358;10.902;2023-05-07T04:56:28;8.43;;;5.50;;
18170;SDS011;9210;48.358;10.902;2023-05-07T04:58:59;10.27;;;5.20;;
18170;SDS011;9210;48.358;10.902;2023-05-07T05:01:29;6.03;;;5.03;;
18170;SDS011;9210;48.358;10.902;2023-05-07T05:03:58;10.13;;;5.67;;
18170;SDS011;9210;48.358;10.902;2023-05-07T05:06:28;9.63;;;5.93;;
18170;SDS011;9210;48.358;10.902;2023-05-07T05:08:58;8.40;;;6.00;;
18170;SDS011;9210;48.358;10.902;2023-05-07T05:11:29;9.53;;;5.80;;
18170;SDS011;9210;48.358;10.902;2023-05-07T05:13:59;9.30;;;5.67;;
18170;SDS011;9210;48.358;10.902;2023-05-07T05:16:28;9.70;;;5.10;;
18170;SDS011;9210;48.358;10.902;2023-05-07T05:18:57;9.30;;;5.63;;
18170;SDS011;9210;48.358;10.902;2023-05-07T05:21:27;8.73;;;4.93;;
18170;SDS011;9210;48.358;10.902;2023-05-07T05:24:03;9.30;;;5.23;;
18170;SDS011;9210;48.358;10.902;2023-05-07T05:26:31;7.50;;;5.60;;
18170;SDS011;9210;48.358;10.902;2023-05-07T05:29:00;10.33;;;5.37;;
18170;SDS011;9210;48.358;10.902;2023-05-07T05:31:31;8.43;;;5.43;;
18170;SDS011;9210;48.358;10.902;2023-05-07T05:34:00;12.40;;;5.97;;
18170;SDS011;9210;48.358;10.902;2023-05-07T05:36:29;9.33;;;6.03;;
18170;SDS011;9210;48.358;10.902;2023-05-07T05:38:58;10.70;;;6.13;;
18170;SDS011;9210;48.358;10.902;2023-05-07T05:41:29;8.50;;;6.13;;
18170;SDS011;9210;48.358;10.902;2023-05-07T05:43:58;8.97;;;6.03;;
18170;SDS011;9210;48.358;10.902;2023-05-07T05:46:27;10.47;;;6.23;;
18170;SDS011;9210;48.358;10.902;2023-05-07T05:48:56;9.87;;;6.30;;
18170;SDS011;9210;48.358;10.902;2023-05-07T05:51:24;11.13;;;7.23;;
18170;SDS011;9210;48.358;10.902;2023-05-07T05:53:54;12.30;;;6.93;;
18170;SDS011;9210;48.358;10.902;2023-05-07T05:56:23;10.70;;;7.07;;
18170;SDS011;9210;48.358;10.902;2023-05-07T05:58:54;11.63;;;7.13;;
18170;SDS011;9210;48.358;10.902;2023-05-07T06:01:24;11.80;;;7.20;;
18170;SDS011;9210;48.358;10.902;2023-05-07T06:03:59;11.23;;;6.90;;
18170;SDS011;9210;48.358;10.902;2023-05-07T06:06:28;13.30;;;7.97;;
18170;SDS011;9210;48.358;10.902;2023-05-07T06:08:58;10.55;;;6.95;;
18170;SDS011;9210;48.358;10.902;2023-05-07T06:11:34;10.43;;;6.90;;
18170;SDS011;9210;48.358;10.902;2023-05-07T06:14:05;9.50;;;6.60;;
18170;SDS011;9210;48.358;10.902;2023-05-07T06:16:34;9.40;;;6.43;;
18170;SDS011;9210;48.358;10.902;2023-05-07T06:19:06;6.82;;;5.05;;
18170;SDS011;9210;48.358;10.902;2023-05-07T06:21:38;10.00;;;6.25;;
18170;SDS011;9210;48.358;10.902;2023-05-07T06:24:08;7.55;;;5.80;;
18170;SDS011;9210;48.358;10.902;2023-05-07T06:26:38;8.90;;;5.72;;
18170;SDS011;9210;48.358;10.902;2023-05-07T06:29:08;7.47;;;5.47;;
18170;SDS011;9210;48.358;10.902;2023-05-07T06:31:39;8.23;;;5.75;;
18170;SDS011;9210;48.358;10.902;2023-05-07T06:34:09;7.80;;;5.60;;
18170;SDS011;9210;48.358;10.902;2023-05-07T06:36:40;9.25;;;5.75;;
18170;SDS011;9210;48.358;10.902;2023-05-07T06:39:30;8.15;;;5.15;;
18170;SDS011;9210;48.358;10.902;2023-05-07T06:42:00;10.40;;;5.70;;
18170;SDS011;9210;48.358;10.902;2023-05-07T06:44:33;8.88;;;5.82;;
18170;SDS011;9210;48.358;10.902;2023-05-07T06:47:06;10.63;;;5.95;;
18170;SDS011;9210;48.358;10.902;2023-05-07T06:49:38;8.52;;;6.43;;
18170;SDS011;9210;48.358;10.902;2023-05-07T06:52:06;8.88;;;6.20;;
18170;SDS011;9210;48.358;10.902;2023-05-07T06:54:35;9.85;;;5.78;;
18170;SDS011;9210;48.358;10.902;2023-05-07T06:57:04;12.60;;;6.78;;
18170;SDS011;9210;48.358;10.902;2023-05-07T06:59:33;8.75;;;6.40;;
18170;SDS011;9210;48.358;10.902;2023-05-07T07:02:02;8.57;;;6.10;;
18170;SDS011;9210;48.358;10.902;2023-05-07T07:04:32;8.75;;;6.10;;
18170;SDS011;9210;48.358;10.902;2023-05-07T07:07:04;8.70;;;5.80;;
18170;SDS011;9210;48.358;10.902;2023-05-07T07:09:34;9.52;;;6.68;;
18170;SDS011;9210;48.358;10.902;2023-05-07T07:12:04;8.20;;;6.07;;
18170;SDS011;9210;48.358;10.902;2023-05-07T07:14:37;16.70;;;6.40;;
18170;SDS011;9210;48.358;10.902;2023-05-07T07:17:06;10.50;;;6.30;;
18170;SDS011;9210;48.358;10.902;2023-05-07T07:19:35;10.13;;;5.90;;
18170;SDS011;9210;48.358;10.902;2023-05-07T07:22:04;10.13;;;6.32;;
18170;SDS011;9210;48.358;10.902;2023-05-07T07:24:32;8.93;;;6.00;;
18170;SDS011;9210;48.358;10.902;2023-05-07T07:27:04;8.05;;;5.53;;
18170;SDS011;9210;48.358;10.902;2023-05-07T07:29:34;10.27;;;6.57;;
18170;SDS011;9210;48.358;10.902;2023-05-07T07:32:04;7.78;;;6.10;;
18170;SDS011;9210;48.358;10.902;2023-05-07T07:34:33;9.25;;;5.93;;
18170;SDS011;9210;48.358;10.902;2023-05-07T07:37:02;10.27;;;6.55;;
18170;SDS011;9210;48.358;10.902;2023-05-07T07:39:33;9.35;;;6.22;;
18170;SDS011;9210;48.358;10.902;2023-05-07T07:42:05;9.50;;;5.40;;
18170;SDS011;9210;48.358;10.902;2023-05-07T07:44:34;8.57;;;6.13;;
18170;SDS011;9210;48.358;10.902;2023-05-07T07:47:08;9.63;;;6.70;;
18170;SDS011;9210;48.358;10.902;2023-05-07T07:49:37;12.40;;;6.78;;
18170;SDS011;9210;48.358;10.902;2023-05-07T07:52:07;10.75;;;6.45;;
18170;SDS011;9210;48.358;10.902;2023-05-07T07:54:37;7.90;;;6.35;;
18170;SDS011;9210;48.358;10.902;2023-05-07T07:57:06;9.48;;;6.65;;
18170;SDS011;9210;48.358;10.902;2023-05-07T07:59:35;10.10;;;6.15;;
18170;SDS011;9210;48.358;10.902;2023-05-07T08:02:04;9.57;;;5.97;;
18170;SDS011;9210;48.358;10.902;2023-05-07T08:04:35;9.43;;;6.53;;
18170;SDS011;9210;48.358;10.902;2023-05-07T08:07:06;7.70;;;5.53;;
18170;SDS011;9210;48.358;10.902;2023-05-07T08:09:38;8.15;;;5.75;;
18170;SDS011;9210;48.358;10.902;2023-05-07T08:12:09;9.98;;;6.47;;
18170;SDS011;9210;48.358;10.902;2023-05-07T08:14:39;8.70;;;5.38;;
18170;SDS011;9210;48.358;10.902;2023-05-07T08:17:08;7.05;;;4.50;;
18170;SDS011;9210;48.358;10.902;2023-05-07T08:19:38;8.90;;;3.97;;
18170;SDS011;9210;48.358;10.902;2023-05-07T08:22:10;5.70;;;3.92;;
18170;SDS011;9210;48.358;10.902;2023-05-07T08:24:39;5.97;;;3.35;;
18170;SDS011;9210;48.358;10.902;2023-05-07T08:27:11;6.95;;;4.40;;
18170;SDS011;9210;48.358;10.902;2023-05-07T08:29:41;5.13;;;3.60;;
18170;SDS011;9210;48.358;10.902;2023-05-07T08:32:14;8.35;;;4.22;;
18170;SDS011;9210;48.358;10.902;2023-05-07T08:34:46;8.63;;;4.60;;
18170;SDS011;9210;48.358;10.902;2023-05-07T08:37:14;5.97;;;3.92;;
18170;SDS011;9210;48.358;10.902;2023-05-07T08:39:43;6.07;;;4.15;;
18170;SDS011;9210;48.358;10.902;2023-05-07T08:42:18;6.00;;;4.07;;
18170;SDS011;9210;48.358;10.902;2023-05-07T08:44:46;6.32;;;4.80;;
18170;SDS011;9210;48.358;10.902;2023-05-07T08:47:20;6.05;;;4.20;;
18170;SDS011;9210;48.358;10.902;2023-05-07T08:49:55;5.63;;;4.03;;
18170;SDS011;9210;48.358;10.902;2023-05-07T08:52:24;5.60;;;2.92;;
18170;SDS011;9210;48.358;10.902;2023-05-07T08:54:53;5.38;;;2.70;;
18170;SDS011;9210;48.358;10.902;2023-05-07T08:57:24;6.78;;;3.35;;
18170;SDS011;9210;48.358;10.902;2023-05-07T08:59:55;4.68;;;2.90;;
18170;SDS011;9210;48.358;10.902;2023-05-07T09:02:24;4.30;;;3.33;;
18170;SDS011;9210;48.358;10.902;2023-05-07T09:04:55;7.03;;;3.53;;
18170;SDS011;9210;48.358;10.902;2023-05-07T09:07:23;5.63;;;2.92;;
18170;SDS011;9210;48.358;10.902;2023-05-07T09:09:54;4.57;;;2.90;;
18170;SDS011;9210;48.358;10.902;2023-05-07T09:12:24;4.68;;;3.30;;
18170;SDS011;9210;48.358;10.902;2023-05-07T09:14:53;4.45;;;3.75;;
18170;SDS011;9210;48.358;10.902;2023-05-07T09:17:21;5.70;;;3.90;;
18170;SDS011;9210;48.358;10.902;2023-05-07T09:19:50;6.07;;;4.07;;
18170;SDS011;9210;48.358;10.902;2023-05-07T09:22:21;6.75;;;4.10;;
18170;SDS011;9210;48.358;10.902;2023-05-07T09:24:56;6.88;;;4.20;;
18170;SDS011;9210;48.358;10.902;2023-05-07T09:27:26;8.27;;;4.20;;
18170;SDS011;9210;48.358;10.902;2023-05-07T09:29:57;9.30;;;3.88;;
18170;SDS011;9210;48.358;10.902;2023-05-07T09:32:26;4.20;;;3.20;;
18170;SDS011;9210;48.358;10.902;2023-05-07T09:34:57;4.68;;;3.03;;
18170;SDS011;9210;48.358;10.902;2023-05-07T09:37:28;6.90;;;2.90;;
18170;SDS011;9210;48.358;10.902;2023-05-07T09:39:59;7.30;;;3.03;;
18170;SDS011;9210;48.358;10.902;2023-05-07T09:42:29;4.35;;;2.63;;
18170;SDS011;9210;48.358;10.902;2023-05-07T09:45:03;5.07;;;3.00;;
18170;SDS011;9210;48.358;10.902;2023-05-07T09:47:36;5.03;;;3.03;;
18170;SDS011;9210;48.358;10.902;2023-05-07T09:50:08;4.40;;;2.90;;
18170;SDS011;9210;48.358;10.902;2023-05-07T09:52:39;5.40;;;2.50;;
18170;SDS011;9210;48.358;10.902;2023-05-07T09:55:09;4.05;;;2.22;;
18170;SDS011;9210;48.358;10.902;2023-05-07T09:57:39;5.32;;;2.03;;
18170;SDS011;9210;48.358;10.902;2023-05-07T10:00:10;3.65;;;1.90;;
18170;SDS011;9210;48.358;10.902;2023-05-07T10:02:48;3.67;;;1.85;;
18170;SDS011;9210;48.358;10.902;2023-05-07T10:05:24;3.33;;;1.65;;
18170;SDS011;9210;48.358;10.902;2023-05-07T10:07:57;3.47;;;1.40;;
18170;SDS011;9210;48.358;10.902;2023-05-07T10:10:30;4.25;;;1.67;;
18170;SDS011;9210;48.358;10.902;2023-05-07T10:12:59;5.15;;;2.13;;
18170;SDS011;9210;48.358;10.902;2023-05-07T10:15:33;2.75;;;1.48;;
18170;SDS011;9210;48.358;10.902;2023-05-07T10:18:04;3.10;;;1.30;;
18170;SDS011;9210;48.358;10.902;2023-05-07T10:20:35;2.05;;;1.38;;
18170;SDS011;9210;48.358;10.902;2023-05-07T10:23:08;4.05;;;1.30;;
18170;SDS011;9210;48.358;10.902;2023-05-07T10:25:44;3.28;;;1.17;;
18170;SDS011;9210;48.358;10.902;2023-05-07T10:28:18;1.98;;;1.17;;
18170;SDS011;9210;48.358;10.902;2023-05-07T10:30:51;3.10;;;1.20;;
18170;SDS011;9210;48.358;10.902;2023-05-07T10:33:25;1.77;;;1.50;;
18170;SDS011;9210;48.358;10.902;2023-05-07T10:35:55;2.35;;;1.30;;
18170;SDS011;9210;48.358;10.902;2023-05-07T10:38:28;1.38;;;1.08;;
18170;SDS011;9210;48.358;10.902;2023-05-07T10:40:58;5.90;;;1.30;;
18170;SDS011;9210;48.358;10.902;2023-05-07T10:43:38;1.70;;;1.08;;
18170;SDS011;9210;48.358;10.902;2023-05-07T10:46:09;3.72;;;1.40;;
18170;SDS011;9210;48.358;10.902;2023-05-07T10:57:42;1.98;;;1.00;;
18170;SDS011;9210;48.358;10.902;2023-05-07T11:00:42;4.07;;;1.40;;
18170;SDS011;9210;48.358;10.902;2023-05-07T11:03:19;4.03;;;1.40;;
18170;SDS011;9210;48.358;10.902;2023-05-07T11:06:12;3.10;;;1.00;;
18170;SDS011;9210;48.358;10.902;2023-05-07T11:08:55;2.85;;;1.27;;
18170;SDS011;9210;48.358;10.902;2023-05-07T11:11:54;2.63;;;1.10;;
18170;SDS011;9210;48.358;10.902;2023-05-07T11:14:47;2.95;;;1.10;;
18170;SDS011;9210;48.358;10.902;2023-05-07T11:17:28;3.50;;;1.20;;
18170;SDS011;9210;48.358;10.902;2023-05-07T11:20:06;3.25;;;1.30;;
18170;SDS011;9210;48.358;10.902;2023-05-07T11:22:46;2.95;;;1.10;;
18170;SDS011;9210;48.358;10.902;2023-05-07T11:25:23;1.88;;;1.10;;
18170;SDS011;9210;48.358;10.902;2023-05-07T11:28:16;4.55;;;1.33;;
18170;SDS011;9210;48.358;10.902;2023-05-07T11:31:06;3.45;;;1.23;;
18170;SDS011;9210;48.358;10.902;2023-05-07T11:33:35;1.92;;;1.00;;
18170;SDS011;9210;48.358;10.902;2023-05-07T11:38:45;3.38;;;1.23;;
18170;SDS011;9210;48.358;10.902;2023-05-07T11:41:14;3.83;;;1.25;;
18170;SDS011;9210;48.358;10.902;2023-05-07T11:43:53;2.22;;;1.40;;
18170;SDS011;9210;48.358;10.902;2023-05-07T11:46:23;2.70;;;1.50;;
18170;SDS011;9210;48.358;10.902;2023-05-07T11:48:52;2.00;;;1.27;;
18170;SDS011;9210;48.358;10.902;2023-05-07T11:51:23;3.28;;;1.30;;
18170;SDS011;9210;48.358;10.902;2023-05-07T11:53:52;4.10;;;1.42;;
18170;SDS011;9210;48.358;10.902;2023-05-07T11:56:21;2.92;;;1.50;;
18170;SDS011;9210;48.358;10.902;2023-05-07T11:58:50;2.92;;;1.30;;
18170;SDS011;9210;48.358;10.902;2023-05-07T12:01:19;3.58;;;1.30;;
18170;SDS011;9210;48.358;10.902;2023-05-07T12:03:49;2.70;;;1.52;;
18170;SDS011;9210;48.358;10.902;2023-05-07T12:06:18;6.95;;;1.63;;
18170;SDS011;9210;48.358;10.902;2023-05-07T12:08:47;2.70;;;1.58;;
18170;SDS011;9210;48.358;10.902;2023-05-07T12:11:16;2.70;;;1.23;;
18170;SDS011;9210;48.358;10.902;2023-05-07T12:13:51;3.13;;;1.52;;
18170;SDS011;9210;48.358;10.902;2023-05-07T12:16:19;2.42;;;1.30;;
18170;SDS011;9210;48.358;10.902;2023-05-07T12:18:51;1.55;;;1.30;;
18170;SDS011;9210;48.358;10.902;2023-05-07T12:21:21;4.47;;;1.40;;
18170;SDS011;9210;48.358;10.902;2023-05-07T12:23:50;2.67;;;1.50;;
18170;SDS011;9210;48.358;10.902;2023-05-07T12:26:19;2.83;;;1.42;;
18170;SDS011;9210;48.358;10.902;2023-05-07T12:28:55;3.67;;;1.38;;
18170;SDS011;9210;48.358;10.902;2023-05-07T12:31:25;3.13;;;1.30;;
18170;SDS011;9210;48.358;10.902;2023-05-07T12:33:55;1.98;;;1.30;;
18170;SDS011;9210;48.358;10.902;2023-05-07T12:36:23;3.15;;;1.63;;
18170;SDS011;9210;48.358;10.902;2023-05-07T12:38:54;2.63;;;1.38;;
18170;SDS011;9210;48.358;10.902;2023-05-07T12:41:23;1.92;;;1.15;;
18170;SDS011;9210;48.358;10.902;2023-05-07T12:43:56;2.17;;;1.40;;
18170;SDS011;9210;48.358;10.902;2023-05-07T12:46:24;3.95;;;1.65;;
18170;SDS011;9210;48.358;10.902;2023-05-07T12:48:53;4.40;;;1.60;;
18170;SDS011;9210;48.358;10.902;2023-05-07T12:51:23;3.75;;;1.73;;
18170;SDS011;9210;48.358;10.902;2023-05-07T12:53:52;3.65;;;1.70;;
18170;SDS011;9210;48.358;10.902;2023-05-07T12:56:24;3.47;;;1.50;;
18170;SDS011;9210;48.358;10.902;2023-05-07T12:58:56;2.00;;;1.50;;
18170;SDS011;9210;48.358;10.902;2023-05-07T13:01:28;3.35;;;1.70;;
18170;SDS011;9210;48.358;10.902;2023-05-07T13:04:00;4.32;;;1.70;;
18170;SDS011;9210;48.358;10.902;2023-05-07T13:06:30;3.20;;;1.58;;
18170;SDS011;9210;48.358;10.902;2023-05-07T13:08:59;4.63;;;1.70;;
18170;SDS011;9210;48.358;10.902;2023-05-07T13:11:27;3.60;;;1.50;;
18170;SDS011;9210;48.358;10.902;2023-05-07T13:13:57;7.35;;;1.88;;
18170;SDS011;9210;48.358;10.902;2023-05-07T13:16:36;3.50;;;1.73;;
18170;SDS011;9210;48.358;10.902;2023-05-07T13:19:04;4.68;;;1.50;;
18170;SDS011;9210;48.358;10.902;2023-05-07T13:21:40;5.55;;;1.85;;
18170;SDS011;9210;48.358;10.902;2023-05-07T13:24:08;4.72;;;1.77;;
18170;SDS011;9210;48.358;10.902;2023-05-07T13:26:37;2.45;;;1.88;;
18170;SDS011;9210;48.358;10.902;2023-05-07T13:29:06;3.70;;;1.70;;
18170;SDS011;9210;48.358;10.902;2023-05-07T13:31:36;4.05;;;1.80;;
18170;SDS011;9210;48.358;10.902;2023-05-07T13:34:09;4.13;;;1.88;;
18170;SDS011;9210;48.358;10.902;2023-05-07T13:36:39;4.20;;;1.80;;
18170;SDS011;9210;48.358;10.902;2023-05-07T13:39:08;4.25;;;1.67;;
18170;SDS011;9210;48.358;10.902;2023-05-07T13:41:36;4.95;;;2.10;;
18170;SDS011;9210;48.358;10.902;2023-05-07T13:44:05;3.35;;;1.60;;
18170;SDS011;9210;48.358;10.902;2023-05-07T13:46:34;3.42;;;1.67;;
18170;SDS011;9210;48.358;10.902;2023-05-07T13:49:03;3.55;;;1.73;;
18170;SDS011;9210;48.358;10.902;2023-05-07T13:51:31;2.60;;;1.73;;
18170;SDS011;9210;48.358;10.902;2023-05-07T13:54:01;2.63;;;1.40;;
18170;SDS011;9210;48.358;10.902;2023-05-07T13:56:29;3.20;;;1.50;;
18170;SDS011;9210;48.358;10.902;2023-05-07T13:58:58;3.10;;;1.60;;
18170;SDS011;9210;48.358;10.902;2023-05-07T14:01:27;2.15;;;1.60;;
18170;SDS011;9210;48.358;10.902;2023-05-07T14:03:57;2.20;;;1.30;;
18170;SDS011;9210;48.358;10.902;2023-05-07T14:06:26;3.63;;;1.40;;
18170;SDS011;9210;48.358;10.902;2023-05-07T14:08:54;2.63;;;1.73;;
18170;SDS011;9210;48.358;10.902;2023-05-07T14:11:25;2.45;;;1.50;;
18170;SDS011;9210;48.358;10.902;2023-05-07T14:13:54;2.28;;;1.52;;
18170;SDS011;9210;48.358;10.902;2023-05-07T14:16:23;1.60;;;1.42;;
18170;SDS011;9210;48.358;10.902;2023-05-07T14:18:52;3.50;;;1.80;;
18170;SDS011;9210;48.358;10.902;2023-05-07T14:21:23;3.70;;;1.55;;
18170;SDS011;9210;48.358;10.902;2023-05-07T14:23:52;2.78;;;1.70;;
18170;SDS011;9210;48.358;10.902;2023-05-07T14:26:22;4.25;;;1.73;;
18170;SDS011;9210;48.358;10.902;2023-05-07T14:28:54;2.13;;;1.42;;
18170;SDS011;9210;48.358;10.902;2023-05-07T14:31:24;5.95;;;1.70;;
18170;SDS011;9210;48.358;10.902;2023-05-07T14:33:53;3.53;;;1.67;;
18170;SDS011;9210;48.358;10.902;2023-05-07T14:36:24;8.65;;;2.15;;
18170;SDS011;9210;48.358;10.902;2023-05-07T14:38:53;6.97;;;1.80;;
18170;SDS011;9210;48.358;10.902;2023-05-07T14:41:21;1.50;;;1.25;;
18170;SDS011;9210;48.358;10.902;2023-05-07T14:43:50;4.18;;;1.73;;
18170;SDS011;9210;48.358;10.902;2023-05-07T14:46:20;4.15;;;1.67;;
18170;SDS011;9210;48.358;10.902;2023-05-07T14:48:50;3.72;;;1.70;;
18170;SDS011;9210;48.358;10.902;2023-05-07T14:51:19;5.40;;;1.23;;
18170;SDS011;9210;48.358;10.902;2023-05-07T14:53:49;5.43;;;1.60;;
18170;SDS011;9210;48.358;10.902;2023-05-07T14:56:19;4.25;;;1.70;;
18170;SDS011;9210;48.358;10.902;2023-05-07T14:58:48;2.88;;;1.50;;
18170;SDS011;9210;48.358;10.902;2023-05-07T15:01:16;4.00;;;1.60;;
18170;SDS011;9210;48.358;10.902;2023-05-07T15:03:46;2.80;;;1.63;;
18170;SDS011;9210;48.358;10.902;2023-05-07T15:06:15;2.13;;;1.50;;
18170;SDS011;9210;48.358;10.902;2023-05-07T15:08:44;3.10;;;1.52;;
18170;SDS011;9210;48.358;10.902;2023-05-07T15:11:13;2.55;;;1.75;;
18170;SDS011;9210;48.358;10.902;2023-05-07T15:13:41;3.35;;;1.60;;
18170;SDS011;9210;48.358;10.902;2023-05-07T15:16:11;3.60;;;1.65;;
18170;SDS011;9210;48.358;10.902;2023-05-07T15:18:40;2.83;;;1.60;;